Time;durP1;ratioP1;P1;durP2;ratioP2;P2;SDS_P1;SDS_P2;PMS_P1;PMS_P2;Temp;Humidity;BMP_temperature;BMP_pressure;BME280_temperature;BME280_humidity;BME280_pressure;Samples;Min_cycle;Max_cycle;Signal;HPM_P1;HPM_P2
2022/10/22 16:11:12;;;;;;;;;96.75;87.25;;;;;13.31;91.27;99644.44;6197899;20;4444098;-70
2022/10/22 16:13:43;;;;;;;;;102.00;85.50;;;;;13.33;93.33;99650.59;6266678;20;4446147;-70
2022/10/22 16:16:12;;;;;;;;;114.00;101.33;;;;;13.10;94.81;99654.91;6297051;20;3710781;-70
2022/10/22 16:18:42;;;;;;;;;137.67;119.67;;;;;13.01;94.78;99650.22;6293822;20;3728417;-70
2022/10/22 16:21:14;;;;;;;;;172.00;140.50;;;;;13.08;94.73;99662.25;6286312;20;1943085;-70
2022/10/22 16:23:44;;;;;;;;;209.00;166.25;;;;;12.97;96.11;99672.94;6289869;20;4452462;-71
2022/10/22 16:26:14;;;;;;;;;174.00;147.00;;;;;12.98;96.47;99665.72;6320817;20;1948437;-70
2022/10/22 16:28:44;;;;;;;;;128.00;107.00;;;;;12.94;94.92;99659.69;6282441;20;1943277;-70
2022/10/22 16:31:18;;;;;;;;;140.33;120.67;;;;;13.05;93.66;99675.94;6291684;20;3714885;-69
2022/10/22 16:33:48;;;;;;;;;154.33;129.67;;;;;13.08;93.27;99680.25;6292130;20;3740965;-70
2022/10/22 16:36:19;;;;;;;;;117.50;100.50;;;;;13.02;92.76;99678.00;6282265;20;1942155;-69
2022/10/22 16:38:55;;;;;;;;;101.25;86.75;;;;;13.05;95.76;99693.97;6287795;20;3688899;-71
2022/10/22 16:41:33;;;;;;;;;96.00;81.00;;;;;13.01;96.06;99687.94;6287242;20;3688968;-69
2022/10/22 16:44:06;;;;;;;;;99.00;84.00;;;;;13.10;97.36;99691.81;6282211;20;1948312;-70
2022/10/22 16:46:37;;;;;;;;;118.67;102.33;;;;;12.80;99.54;99701.09;6292262;20;3714856;-69
2022/10/22 16:49:07;;;;;;;;;100.00;83.00;;;;;12.58;100.00;99711.66;6286731;20;3695042;-69
2022/10/22 16:51:36;;;;;;;;;80.33;71.67;;;;;12.58;100.00;99714.34;6288139;20;3669056;-68
2022/10/22 16:54:05;;;;;;;;;97.00;84.00;;;;;12.46;100.00;99716.94;6287360;20;1928552;-68
2022/10/22 16:56:40;;;;;;;;;76.25;62.75;;;;;12.46;100.00;99729.53;6296167;20;3641004;-68
2022/10/22 16:59:09;;;;;;;;;82.50;64.50;;;;;12.56;100.00;99738.72;6323071;20;4425314;-67
2022/10/22 17:01:41;;;;;;;;;130.00;112.38;;;;;12.48;100.00;99743.72;6311808;20;3720079;-68
2022/10/22 17:04:11;;;;;;;;;134.67;114.67;;;;;12.41;100.00;99754.06;6288388;20;3743991;-66
2022/10/22 17:06:39;;;;;;;;;115.67;101.67;;;;;12.34;100.00;99752.75;6287194;20;1951572;-67
2022/10/22 17:09:07;;;;;;;;;92.00;77.00;;;;;12.35;100.00;99762.59;6319220;20;1933647;-63
2022/10/22 17:11:37;;;;;;;;;75.33;64.00;;;;;12.30;100.00;99764.72;6292177;20;3654439;-67
2022/10/22 17:14:13;;;;;;;;;71.67;58.00;;;;;12.28;100.00;99758.56;6287944;20;3622162;-68
2022/10/22 17:16:47;;;;;;;;;73.75;57.75;;;;;12.30;100.00;99762.03;6322179;20;4395062;-66
2022/10/22 17:19:17;;;;;;;;;75.75;60.50;;;;;12.24;100.00;99760.63;6326670;20;4393982;-67
2022/10/22 17:21:48;;;;;;;;;70.00;53.67;;;;;12.25;100.00;99753.41;6310086;20;3632586;-64
2022/10/22 17:24:18;;;;;;;;;68.00;52.33;;;;;12.20;100.00;99758.22;6272678;20;3620607;-67
2022/10/22 17:26:49;;;;;;;;;70.00;53.33;;;;;12.21;100.00;99754.56;6267103;20;3638820;-68
2022/10/22 17:29:20;;;;;;;;;75.67;56.33;;;;;12.06;100.00;99751.09;6267484;20;3646106;-67
2022/10/22 17:32:17;;;;;;;;;69.67;54.00;;;;;12.09;100.00;99758.94;6300442;20;3608591;-67
2022/10/22 17:34:46;;;;;;;;;79.00;68.67;;;;;12.19;100.00;99751.09;6272870;20;3673181;-68
2022/10/22 17:37:16;;;;;;;;;75.00;56.25;;;;;12.14;100.00;99759.50;6261535;20;3645217;-66
2022/10/22 17:39:45;;;;;;;;;65.25;50.75;;;;;12.04;100.00;99751.16;6303575;20;3644074;-67
2022/10/22 17:42:17;;;;;;;;;69.67;54.00;;;;;12.07;100.00;99759.03;6299865;20;3604435;-67
2022/10/22 17:44:46;;;;;;;;;71.00;57.00;;;;;12.12;100.00;99753.34;6267589;20;3611723;-71
2022/10/22 17:47:16;;;;;;;;;67.25;52.00;;;;;12.06;100.00;99760.00;6300677;20;3644166;-68
2022/10/22 17:49:45;;;;;;;;;65.33;52.00;;;;;11.96;100.00;99748.13;6300124;20;3610709;-67
2022/10/22 17:52:14;;;;;;;;;65.33;51.00;;;;;11.85;100.00;99754.19;6274646;20;3621115;-67
2022/10/22 17:54:43;;;;;;;;;67.00;52.00;;;;;11.82;100.00;99757.09;6274517;20;3638842;-67
2022/10/22 17:57:12;;;;;;;;;64.33;50.67;;;;;11.84;100.00;99755.13;6267399;20;3622251;-68
2022/10/22 17:59:42;;;;;;;;;63.67;50.33;;;;;11.91;100.00;99771.78;6271417;20;3629885;-66
2022/10/22 18:02:16;;;;;;;;;66.00;52.33;;;;;11.93;100.00;99768.97;6302889;20;3619017;-67
2022/10/22 18:04:52;;;;;;;;;73.63;56.25;;;;;11.91;100.00;99763.72;6286858;20;3628542;-65
2022/10/22 18:07:22;;;;;;;;;71.00;52.00;;;;;11.89;100.00;99773.69;6272964;20;3646171;-68
2022/10/22 18:09:51;;;;;;;;;73.67;57.00;;;;;11.93;100.00;99760.91;6267884;20;3639818;-68
2022/10/22 18:12:21;;;;;;;;;80.00;68.33;;;;;11.97;100.00;99776.75;6303782;20;3659432;-67
2022/10/22 18:14:51;;;;;;;;;79.75;60.00;;;;;11.92;100.00;99765.44;6274076;20;4411813;-67
2022/10/22 18:17:19;;;;;;;;;83.50;71.00;;;;;11.93;100.00;99771.66;6295359;20;1936833;-65
2022/10/22 18:19:48;;;;;;;;;78.50;64.50;;;;;11.84;100.00;99779.34;6271580;20;1929485;-67
2022/10/22 18:22:18;;;;;;;;;75.75;58.75;;;;;11.80;100.00;99790.44;6273092;20;4402330;-67
2022/10/22 18:24:48;;;;;;;;;80.00;66.00;;;;;11.79;100.00;99791.38;6301880;20;4437837;-69
2022/10/22 18:27:17;;;;;;;;;79.75;65.50;;;;;11.80;100.00;99779.66;6302607;20;4421155;-65
2022/10/22 18:29:49;;;;;;;;;73.50;54.50;;;;;11.93;100.00;99758.22;6305671;20;3639944;-67
2022/10/22 18:32:18;;;;;;;;;76.00;60.00;;;;;11.77;100.00;99769.09;6300793;20;3630664;-67
2022/10/22 18:34:47;;;;;;;;;73.00;57.00;;;;;11.69;100.00;99787.53;6269886;20;3634634;-65
2022/10/22 18:37:14;;;;;;;;;79.00;64.50;;;;;11.74;100.00;99807.84;6268643;20;1930458;-64
2022/10/22 18:39:44;;;;;;;;;78.25;60.50;;;;;11.85;100.00;99809.84;6270777;20;4430573;-67
2022/10/22 18:42:13;;;;;;;;;75.50;57.50;;;;;11.77;100.00;99802.25;6303409;20;3652499;-67
2022/10/22 18:45:03;;;;;;;;;71.00;54.67;;;;;11.77;100.00;99795.97;6305139;20;3616093;-67
2022/10/22 18:47:32;;;;;;;;;65.67;53.00;;;;;11.70;100.00;99811.66;6275627;20;3627426;-69
2022/10/22 18:50:02;;;;;;;;;62.00;48.00;;;;;11.73;100.00;99813.31;6270347;20;3628492;-68
2022/10/22 18:52:32;;;;;;;;;63.00;48.00;;;;;11.72;100.00;99809.75;6298151;20;3635700;-68
2022/10/22 18:55:02;;;;;;;;;66.67;52.33;;;;;11.67;100.00;99805.63;6302964;20;3633747;-66
2022/10/22 18:57:31;;;;;;;;;66.67;52.33;;;;;11.71;100.00;99801.78;6270754;20;3606612;-68
2022/10/22 19:00:01;;;;;;;;;71.00;53.33;;;;;11.70;100.00;99805.44;6265534;20;3625252;-68
2022/10/22 19:02:30;;;;;;;;;67.67;52.00;;;;;11.69;100.00;99825.19;6302091;20;3629408;-69
2022/10/22 19:04:59;;;;;;;;;68.00;53.00;;;;;11.68;100.00;99823.50;6302453;20;3631584;-69
2022/10/22 19:07:30;;;;;;;;;66.00;54.00;;;;;11.67;100.00;99816.41;6273790;20;3614821;-66
2022/10/22 19:09:59;;;;;;;;;66.67;52.00;;;;;11.70;100.00;99800.91;6305461;20;3629921;-67
2022/10/22 19:12:28;;;;;;;;;69.33;51.00;;;;;11.63;100.00;99816.56;6267339;20;3637767;-66
2022/10/22 19:14:57;;;;;;;;;65.67;50.67;;;;;11.62;100.00;99816.69;6305950;20;3624282;-65
2022/10/22 19:17:26;;;;;;;;;63.67;50.67;;;;;11.71;100.00;99828.66;6273706;20;3615941;-67
2022/10/22 19:19:56;;;;;;;;;62.75;47.50;;;;;11.68;100.00;99818.97;6271456;20;3629464;-64
2022/10/22 19:22:25;;;;;;;;;58.33;46.67;;;;;11.72;100.00;99825.03;6305477;20;3628427;-65
2022/10/22 19:24:55;;;;;;;;;59.00;46.00;;;;;11.72;100.00;99825.91;6272488;20;3623237;-67
2022/10/22 19:27:24;;;;;;;;;61.00;47.33;;;;;11.59;100.00;99822.25;6301856;20;3610780;-66
2022/10/22 19:29:54;;;;;;;;;64.00;47.67;;;;;11.56;100.00;99798.25;6306610;20;3633708;-65
2022/10/22 19:32:23;;;;;;;;;62.00;48.67;;;;;11.55;100.00;99792.00;6304241;20;3629431;-68
2022/10/22 19:34:57;;;;;;;;;54.33;45.67;;;;;11.56;100.00;99819.78;6269568;20;3615948;-68
2022/10/22 19:37:25;;;;;;;;;64.33;49.00;;;;;11.46;100.00;99835.63;6308156;20;3638829;-68
2022/10/22 19:39:54;;;;;;;;;64.33;49.67;;;;;11.45;100.00;99833.88;6275733;20;3620083;-65
2022/10/22 19:42:22;;;;;;;;;70.00;54.00;;;;;11.49;100.00;99827.34;6272976;20;3629500;-69
2022/10/22 19:44:52;;;;;;;;;68.33;49.67;;;;;11.43;100.00;99830.44;6272264;20;3637984;-68
2022/10/22 19:47:21;;;;;;;;;60.33;46.33;;;;;11.33;100.00;99823.91;6302011;20;3624176;-68
2022/10/22 19:49:51;;;;;;;;;60.33;49.00;;;;;11.36;100.00;99845.22;6305061;20;3615854;-66
2022/10/22 19:52:21;;;;;;;;;60.33;49.33;;;;;11.32;100.00;99852.63;6298790;20;3617944;-67
2022/10/22 19:54:49;;;;;;;;;61.00;49.00;;;;;11.29;100.00;99849.22;6306726;20;3606517;-69
2022/10/22 19:57:19;;;;;;;;;61.00;49.00;;;;;11.25;100.00;99847.72;6270879;20;3609615;-66
2022/10/22 19:59:48;;;;;;;;;104.75;89.00;;;;;11.16;100.00;99847.31;6305857;20;4458562;-67
2022/10/22 20:02:18;;;;;;;;;75.33;58.67;;;;;11.14;100.00;99851.06;6304584;20;3626894;-67
2022/10/22 20:04:47;;;;;;;;;69.33;54.33;;;;;11.13;100.00;99847.47;6272945;20;3617983;-68
2022/10/22 20:07:18;;;;;;;;;90.00;77.00;;;;;11.10;100.00;99846.81;6268484;20;3662838;-67
2022/10/22 20:09:47;;;;;;;;;60.67;49.67;;;;;11.09;100.00;99842.41;6271664;20;3611726;-67
2022/10/22 20:12:17;;;;;;;;;64.00;51.00;;;;;11.03;100.00;99838.25;6300546;20;3612781;-67
2022/10/22 20:14:46;;;;;;;;;64.50;50.75;;;;;11.02;100.00;99847.28;6303647;20;3631527;-67
2022/10/22 20:17:15;;;;;;;;;69.33;53.33;;;;;10.94;100.00;99854.94;6301936;20;3633595;-66
2022/10/22 20:19:44;;;;;;;;;63.67;48.67;;;;;10.93;100.00;99851.41;6272849;20;3630552;-67
2022/10/22 20:22:13;;;;;;;;;60.00;45.00;;;;;10.93;100.00;99853.22;6270654;20;3622188;-69
2022/10/22 20:24:46;;;;;;;;;60.67;48.33;;;;;10.91;100.00;99860.50;6305735;20;3616944;-67
2022/10/22 20:27:15;;;;;;;;;61.33;49.33;;;;;10.89;100.00;99859.72;6267017;20;3617018;-66
2022/10/22 20:29:45;;;;;;;;;61.00;47.00;;;;;10.92;100.00;99862.22;6298751;20;3646081;-68
2022/10/22 20:32:15;;;;;;;;;59.00;47.67;;;;;10.80;100.00;99862.97;6266029;20;3637814;-64
2022/10/22 20:34:44;;;;;;;;;63.00;49.00;;;;;10.73;100.00;99862.47;6301870;20;3630521;-66
2022/10/22 20:37:14;;;;;;;;;60.33;47.67;;;;;10.81;100.00;99862.88;6296852;20;3613845;-67
2022/10/22 20:39:43;;;;;;;;;66.00;51.67;;;;;10.88;100.00;99855.31;6298977;20;3630516;-66
2022/10/22 20:42:14;;;;;;;;;65.33;49.67;;;;;10.80;100.00;99857.59;6301907;20;3625241;-65
2022/10/22 20:44:42;;;;;;;;;59.33;47.00;;;;;10.79;100.00;99866.59;6268798;20;3626375;-67
2022/10/22 20:47:12;;;;;;;;;60.67;50.00;;;;;10.85;100.00;99869.81;6268182;20;3613918;-67
2022/10/22 20:49:42;;;;;;;;;68.25;52.50;;;;;10.82;100.00;99872.69;6273875;20;3651375;-65
2022/10/22 20:52:11;;;;;;;;;67.00;53.33;;;;;10.75;100.00;99890.09;6294138;20;3623212;-67
2022/10/22 20:54:42;;;;;;;;;62.00;50.00;;;;;10.68;100.00;99886.91;6300309;20;3622151;-66
2022/10/22 20:57:13;;;;;;;;;78.33;66.33;;;;;10.67;100.00;99885.19;6271746;20;3660767;-66
2022/10/22 20:59:42;;;;;;;;;61.67;47.00;;;;;10.63;100.00;99894.34;6267614;20;3627978;-66
2022/10/22 21:02:12;;;;;;;;;64.25;49.50;;;;;10.66;100.00;99883.44;6302112;20;3633592;-68
2022/10/22 21:04:41;;;;;;;;;63.33;49.33;;;;;10.47;100.00;99888.16;6307529;20;3633574;-66
2022/10/22 21:07:14;;;;;;;;;61.00;50.00;;;;;10.46;100.00;99894.50;6306311;20;3624291;-68
2022/10/22 21:09:44;;;;;;;;;68.00;51.00;;;;;10.38;100.00;99889.56;6307409;20;3641966;-66
2022/10/22 21:12:13;;;;;;;;;61.33;49.00;;;;;10.50;100.00;99891.50;6271737;20;2870224;-65
2022/10/22 21:14:43;;;;;;;;;63.00;50.00;;;;;10.51;100.00;99895.09;6304615;20;3625261;-67
2022/10/22 21:17:12;;;;;;;;;64.33;50.00;;;;;10.43;100.00;99886.63;6305678;20;3629561;-67
2022/10/22 21:19:41;;;;;;;;;67.67;51.33;;;;;10.39;100.00;99879.69;6308444;20;3635672;-66
2022/10/22 21:22:11;;;;;;;;;67.25;50.00;;;;;10.28;100.00;99880.31;6273955;20;3644063;-68
2022/10/22 21:24:41;;;;;;;;;64.00;50.67;;;;;10.26;100.00;99883.03;6306039;20;3631498;-70
2022/10/22 21:27:10;;;;;;;;;66.33;52.33;;;;;10.27;100.00;99886.59;6271545;20;3631486;-66
2022/10/22 21:29:39;;;;;;;;;65.67;51.33;;;;;10.39;100.00;99885.91;6305393;20;3626351;-69
2022/10/22 21:32:08;;;;;;;;;62.75;50.00;;;;;10.33;100.00;99886.28;6275678;20;3625417;-66
2022/10/22 21:34:38;;;;;;;;;60.33;48.33;;;;;10.35;100.00;99888.84;6306799;20;3614865;-67
2022/10/22 21:37:07;;;;;;;;;62.00;49.67;;;;;10.32;100.00;99890.78;6309773;20;3608637;-68
2022/10/22 21:39:36;;;;;;;;;64.00;50.00;;;;;10.36;100.00;99896.81;6272742;20;3626397;-67
2022/10/22 21:42:13;;;;;;;;;67.33;49.33;;;;;10.30;100.00;99883.78;6302446;20;3646321;-68
2022/10/22 21:44:43;;;;;;;;;61.67;49.00;;;;;10.32;100.00;99896.16;6267550;20;3612807;-68
2022/10/22 21:47:12;;;;;;;;;65.33;50.33;;;;;10.27;100.00;99874.06;6304688;20;3639844;-67
2022/10/22 21:49:42;;;;;;;;;61.67;49.00;;;;;10.42;100.00;99890.25;6303860;20;3602496;-68
2022/10/22 21:52:11;;;;;;;;;68.00;54.67;;;;;10.38;100.00;99894.94;6306426;20;3603352;-66
2022/10/22 21:54:40;;;;;;;;;62.33;48.00;;;;;10.45;100.00;99890.94;6273822;20;3644497;-66
2022/10/22 21:57:10;;;;;;;;;60.00;48.00;;;;;10.49;100.00;99902.38;6305076;20;3604424;-67
2022/10/22 21:59:40;;;;;;;;;61.00;48.00;;;;;10.50;100.00;99898.72;6303278;20;3622141;-67
2022/10/22 22:02:09;;;;;;;;;65.33;48.33;;;;;10.39;100.00;99901.16;6304623;20;3640943;-66
2022/10/22 22:04:39;;;;;;;;;58.00;46.67;;;;;10.52;100.00;99910.22;6306688;20;3616997;-66
2022/10/22 22:07:08;;;;;;;;;66.67;51.33;;;;;10.51;100.00;99908.50;6309545;20;3645045;-67
2022/10/22 22:09:37;;;;;;;;;61.33;48.33;;;;;10.58;100.00;99896.44;6305361;20;3619246;-67
2022/10/22 22:12:07;;;;;;;;;60.67;48.00;;;;;10.55;100.00;99897.47;6270486;20;3639901;-65
2022/10/22 22:14:36;;;;;;;;;53.00;42.50;;;;;10.66;100.00;99902.22;6301919;20;2853561;-66
2022/10/22 22:17:06;;;;;;;;;57.33;45.67;;;;;10.71;100.00;99913.56;6270871;20;3625309;-67
2022/10/22 22:19:37;;;;;;;;;54.67;43.33;;;;;10.66;100.00;99904.06;6304421;20;3623209;-67
2022/10/22 22:22:07;;;;;;;;;52.00;41.33;;;;;10.72;100.00;99904.56;6305351;20;3610652;-65
2022/10/22 22:24:38;;;;;;;;;60.33;47.33;;;;;10.77;100.00;99902.47;6307626;20;3641959;-67
2022/10/22 22:27:08;;;;;;;;;58.67;47.33;;;;;10.84;100.00;99900.28;6304389;20;3625285;-67
2022/10/22 22:29:37;;;;;;;;;56.33;46.33;;;;;10.92;100.00;99907.88;6304891;20;3607616;-68
2022/10/22 22:32:07;;;;;;;;;60.33;46.67;;;;;10.82;100.00;99906.69;6303453;20;3636765;-68
2022/10/22 22:34:36;;;;;;;;;59.33;46.33;;;;;10.87;100.00;99908.16;6302675;20;3621161;-67
2022/10/22 22:37:07;;;;;;;;;58.33;47.00;;;;;10.90;100.00;99901.75;6305508;20;3625251;-67
2022/10/22 22:39:37;;;;;;;;;60.00;47.00;;;;;10.93;100.00;99918.56;6303488;20;3626344;-66
2022/10/22 22:42:06;;;;;;;;;56.33;45.67;;;;;10.94;100.00;99930.16;6302286;20;2867548;-68
2022/10/22 22:44:37;;;;;;;;;57.00;47.00;;;;;10.93;100.00;99917.69;6304122;20;3606518;-67
2022/10/22 22:47:07;;;;;;;;;60.67;46.00;;;;;11.09;100.00;99934.63;6306890;20;3632624;-70
2022/10/22 22:49:36;;;;;;;;;59.67;47.00;;;;;10.98;100.00;99935.28;6303779;20;3644247;-67
2022/10/22 22:52:06;;;;;;;;;58.33;44.67;;;;;11.01;100.00;99930.69;6301526;20;3620191;-66
2022/10/22 22:54:35;;;;;;;;;49.67;42.67;;;;;11.09;100.00;99939.16;6299532;20;2852418;-69
2022/10/22 22:57:05;;;;;;;;;61.33;45.00;;;;;11.07;100.00;99941.06;6303989;20;3638825;-68
2022/10/22 22:59:34;;;;;;;;;56.00;44.33;;;;;11.06;100.00;99936.63;6302072;20;3606668;-67
2022/10/22 23:02:04;;;;;;;;;59.33;44.67;;;;;11.11;100.00;99932.72;6305934;20;3627348;-68
2022/10/22 23:04:33;;;;;;;;;59.00;47.00;;;;;11.11;100.00;99931.84;6304148;20;3629515;-68
2022/10/22 23:07:03;;;;;;;;;54.67;44.33;;;;;11.20;100.00;99936.66;6305067;20;3623170;-68
2022/10/22 23:09:32;;;;;;;;;54.33;44.00;;;;;11.17;100.00;99943.09;6302334;20;3614884;-68
2022/10/22 23:12:02;;;;;;;;;58.33;46.33;;;;;11.23;100.00;99941.00;6297681;20;3632575;-67
2022/10/22 23:14:32;;;;;;;;;56.00;45.33;;;;;11.26;100.00;99946.19;6299305;20;3629501;-67
2022/10/22 23:17:01;;;;;;;;;52.00;44.67;;;;;11.20;100.00;99956.34;6299643;20;3607569;-66
2022/10/22 23:19:31;;;;;;;;;61.00;48.00;;;;;11.27;100.00;99953.28;6299602;20;3620010;-67
2022/10/22 23:22:00;;;;;;;;;55.00;43.00;;;;;11.32;100.00;99953.88;6302526;20;2863897;-67
2022/10/22 23:24:30;;;;;;;;;57.00;44.67;;;;;11.36;100.00;99950.06;6300465;20;3621158;-66
2022/10/22 23:27:03;;;;;;;;;56.00;44.33;;;;;11.37;100.00;99959.84;6303980;20;2851338;-68
2022/10/22 23:29:37;;;;;;;;;56.67;44.00;;;;;11.25;100.00;99957.91;6302872;20;3617982;-70
2022/10/22 23:32:13;;;;;;;;;60.00;45.00;;;;;11.29;100.00;99954.06;6301731;20;3645144;-66
2022/10/22 23:34:43;;;;;;;;;59.00;44.67;;;;;11.31;100.00;99965.59;6300566;20;3625256;-68
2022/10/22 23:37:12;;;;;;;;;56.67;46.67;;;;;11.24;100.00;99948.09;6304522;20;3627382;-68
2022/10/22 23:39:41;;;;;;;;;59.33;46.00;;;;;11.26;100.00;99954.25;6270328;20;3621077;-69
2022/10/22 23:42:11;;;;;;;;;55.67;47.00;;;;;11.07;100.00;99952.66;6301527;20;3624259;-68
2022/10/22 23:44:40;;;;;;;;;55.33;44.00;;;;;11.10;100.00;99952.47;6301731;20;3633703;-69
2022/10/22 23:47:09;;;;;;;;;58.00;46.00;;;;;11.08;100.00;99959.75;6307140;20;3631530;-68
2022/10/22 23:49:38;;;;;;;;;54.00;43.33;;;;;11.02;100.00;99960.13;6269753;20;2855685;-68
2022/10/22 23:52:07;;;;;;;;;59.00;47.00;;;;;10.91;100.00;99959.91;6304126;20;3626448;-69
2022/10/22 23:54:36;;;;;;;;;56.67;47.00;;;;;10.92;100.00;99965.16;6270035;20;3612852;-68
2022/10/22 23:57:06;;;;;;;;;48.67;41.00;;;;;10.85;100.00;99966.50;6301819;20;2865754;-66
2022/10/22 23:59:35;;;;;;;;;57.33;46.00;;;;;10.79;100.00;99965.97;6298539;20;3621105;-67
